sensor_id;sensor_type;location;lat;lon;timestamp;pressure;altitude;pressure_sealevel;temperature;humidity
68871;BME280;55906;52.278;6.808;2022-07-19T00:02:06;101666.53;;;21.92;50.40
68871;BME280;55906;52.278;6.808;2022-07-19T00:04:33;101662.97;;;21.89;50.23
68871;BME280;55906;52.278;6.808;2022-07-19T00:07:00;101663.03;;;21.83;50.65
68871;BME280;55906;52.278;6.808;2022-07-19T00:09:27;101673.75;;;21.80;50.87
68871;BME280;55906;52.278;6.808;2022-07-19T00:11:55;101664.88;;;21.75;50.82
68871;BME280;55906;52.278;6.808;2022-07-19T00:14:22;101669.38;;;21.71;51.07
68871;BME280;55906;52.278;6.808;2022-07-19T00:16:49;101677.41;;;21.68;50.57
68871;BME280;55906;52.278;6.808;2022-07-19T00:19:17;101679.22;;;21.66;51.24
68871;BME280;55906;52.278;6.808;2022-07-19T00:21:47;101671.22;;;21.63;50.95
68871;BME280;55906;52.278;6.808;2022-07-19T00:24:13;101676.59;;;21.57;51.15
68871;BME280;55906;52.278;6.808;2022-07-19T00:26:40;101672.19;;;21.51;51.04
68871;BME280;55906;52.278;6.808;2022-07-19T00:29:07;101680.22;;;21.48;51.50
68871;BME280;55906;52.278;6.808;2022-07-19T00:31:33;101677.56;;;21.45;51.69
68871;BME280;55906;52.278;6.808;2022-07-19T00:34:00;101672.22;;;21.42;51.38
68871;BME280;55906;52.278;6.808;2022-07-19T00:36:28;101679.38;;;21.42;51.36
68871;BME280;55906;52.278;6.808;2022-07-19T00:38:55;101680.28;;;21.37;51.79
68871;BME280;55906;52.278;6.808;2022-07-19T00:41:21;101670.50;;;21.32;51.81
68871;BME280;55906;52.278;6.808;2022-07-19T00:43:48;101675.00;;;21.25;51.64
68871;BME280;55906;52.278;6.808;2022-07-19T00:46:17;101677.69;;;21.22;51.90
68871;BME280;55906;52.278;6.808;2022-07-19T00:48:45;101678.59;;;21.17;52.11
68871;BME280;55906;52.278;6.808;2022-07-19T00:51:13;101684.84;;;21.13;52.21
68871;BME280;55906;52.278;6.808;2022-07-19T00:53:42;101678.59;;;21.11;52.98
68871;BME280;55906;52.278;6.808;2022-07-19T00:56:11;101672.38;;;21.08;52.51
68871;BME280;55906;52.278;6.808;2022-07-19T00:58:38;101665.25;;;21.04;52.85
68871;BME280;55906;52.278;6.808;2022-07-19T01:01:07;101663.50;;;21.00;53.21
68871;BME280;55906;52.278;6.808;2022-07-19T01:03:35;101664.41;;;20.98;53.18
68871;BME280;55906;52.278;6.808;2022-07-19T01:06:02;101664.41;;;20.95;53.08
68871;BME280;55906;52.278;6.808;2022-07-19T01:08:29;101666.22;;;20.91;53.22
68871;BME280;55906;52.278;6.808;2022-07-19T01:10:57;101646.63;;;20.82;53.96
68871;BME280;55906;52.278;6.808;2022-07-19T01:13:24;101658.22;;;20.84;53.75
68871;BME280;55906;52.278;6.808;2022-07-19T01:15:51;101652.88;;;20.82;53.44
68871;BME280;55906;52.278;6.808;2022-07-19T01:18:18;101652.84;;;20.79;53.52
68871;BME280;55906;52.278;6.808;2022-07-19T01:20:44;101661.78;;;20.75;53.67
68871;BME280;55906;52.278;6.808;2022-07-19T01:23:12;101671.59;;;20.73;53.80
68871;BME280;55906;52.278;6.808;2022-07-19T01:25:39;101659.13;;;20.70;54.20
68871;BME280;55906;52.278;6.808;2022-07-19T01:28:06;101667.16;;;20.67;53.93
68871;BME280;55906;52.278;6.808;2022-07-19T01:30:34;101668.94;;;20.61;54.26
68871;BME280;55906;52.278;6.808;2022-07-19T01:33:00;101666.28;;;20.56;54.57
68871;BME280;55906;52.278;6.808;2022-07-19T01:35:27;101667.19;;;20.54;54.36
68871;BME280;55906;52.278;6.808;2022-07-19T01:37:54;101669.88;;;20.49;54.51
68871;BME280;55906;52.278;6.808;2022-07-19T01:40:23;101674.31;;;20.47;55.03
68871;BME280;55906;52.278;6.808;2022-07-19T01:42:50;101668.09;;;20.43;54.66
68871;BME280;55906;52.278;6.808;2022-07-19T01:45:18;101669.88;;;20.40;54.99
68871;BME280;55906;52.278;6.808;2022-07-19T01:47:46;101668.97;;;20.36;55.18
68871;BME280;55906;52.278;6.808;2022-07-19T01:50:14;101681.44;;;20.34;55.24
68871;BME280;55906;52.278;6.808;2022-07-19T01:52:41;101669.88;;;20.32;55.47
68871;BME280;55906;52.278;6.808;2022-07-19T01:58:31;101677.00;;;20.24;55.73
68871;BME280;55906;52.278;6.808;2022-07-19T02:00:57;101681.47;;;20.21;55.63
68871;BME280;55906;52.278;6.808;2022-07-19T02:03:24;101678.78;;;20.18;55.91
68871;BME280;55906;52.278;6.808;2022-07-19T02:05:51;101677.00;;;20.15;55.74
68871;BME280;55906;52.278;6.808;2022-07-19T02:08:17;101673.44;;;20.13;55.71
68871;BME280;55906;52.278;6.808;2022-07-19T02:10:44;101669.88;;;20.11;56.11
68871;BME280;55906;52.278;6.808;2022-07-19T02:13:10;101667.22;;;20.05;56.05
68871;BME280;55906;52.278;6.808;2022-07-19T02:15:39;101678.78;;;20.08;56.34
68871;BME280;55906;52.278;6.808;2022-07-19T02:18:05;101669.00;;;20.06;56.17
68871;BME280;55906;52.278;6.808;2022-07-19T02:20:32;101667.22;;;20.05;56.00
68871;BME280;55906;52.278;6.808;2022-07-19T02:22:58;101659.19;;;20.00;56.17
68871;BME280;55906;52.278;6.808;2022-07-19T02:25:25;101663.66;;;19.95;56.24
68871;BME280;55906;52.278;6.808;2022-07-19T02:27:51;101663.66;;;19.92;56.45
68871;BME280;55906;52.278;6.808;2022-07-19T02:30:19;101663.66;;;19.88;56.45
68871;BME280;55906;52.278;6.808;2022-07-19T02:32:47;101665.44;;;19.84;56.98
68871;BME280;55906;52.278;6.808;2022-07-19T02:35:14;101662.75;;;19.83;56.81
68871;BME280;55906;52.278;6.808;2022-07-19T02:37:41;101667.22;;;19.80;56.94
68871;BME280;55906;52.278;6.808;2022-07-19T02:40:09;101668.09;;;19.78;56.82
68871;BME280;55906;52.278;6.808;2022-07-19T02:42:35;101671.66;;;19.72;57.06
68871;BME280;55906;52.278;6.808;2022-07-19T02:45:02;101674.31;;;19.72;57.10
68871;BME280;55906;52.278;6.808;2022-07-19T02:47:29;101668.97;;;19.71;57.04
68871;BME280;55906;52.278;6.808;2022-07-19T02:49:57;101666.31;;;19.68;57.39
68871;BME280;55906;52.278;6.808;2022-07-19T02:52:23;101659.19;;;19.64;57.31
68871;BME280;55906;52.278;6.808;2022-07-19T02:54:50;101660.97;;;19.60;57.54
68871;BME280;55906;52.278;6.808;2022-07-19T02:57:16;101662.72;;;19.57;57.27
68871;BME280;55906;52.278;6.808;2022-07-19T02:59:43;101656.50;;;19.53;57.70
68871;BME280;55906;52.278;6.808;2022-07-19T03:02:10;101656.44;;;19.50;57.74
68871;BME280;55906;52.278;6.808;2022-07-19T03:04:36;101655.53;;;19.48;57.80
68871;BME280;55906;52.278;6.808;2022-07-19T03:07:04;101651.06;;;19.47;57.78
68871;BME280;55906;52.278;6.808;2022-07-19T03:09:31;101654.63;;;19.40;57.94
68871;BME280;55906;52.278;6.808;2022-07-19T03:11:57;101653.72;;;19.38;57.94
68871;BME280;55906;52.278;6.808;2022-07-19T03:14:24;101660.84;;;19.37;57.99
68871;BME280;55906;52.278;6.808;2022-07-19T03:16:53;101658.19;;;19.36;58.01
68871;BME280;55906;52.278;6.808;2022-07-19T03:19:19;101658.16;;;19.33;58.12
68871;BME280;55906;52.278;6.808;2022-07-19T03:21:46;101659.06;;;19.30;57.97
68871;BME280;55906;52.278;6.808;2022-07-19T03:24:14;101651.03;;;19.29;58.24
68871;BME280;55906;52.278;6.808;2022-07-19T03:26:46;101658.16;;;19.27;58.25
68871;BME280;55906;52.278;6.808;2022-07-19T03:29:15;101658.13;;;19.24;58.14
68871;BME280;55906;52.278;6.808;2022-07-19T03:31:42;101656.34;;;19.23;58.26
68871;BME280;55906;52.278;6.808;2022-07-19T03:34:09;101661.69;;;19.21;58.52
68871;BME280;55906;52.278;6.808;2022-07-19T03:36:35;101659.00;;;19.18;58.48
68871;BME280;55906;52.278;6.808;2022-07-19T03:39:02;101666.13;;;19.16;58.55
68871;BME280;55906;52.278;6.808;2022-07-19T03:41:30;101660.78;;;19.14;58.74
68871;BME280;55906;52.278;6.808;2022-07-19T03:43:57;101667.00;;;19.12;58.65
68871;BME280;55906;52.278;6.808;2022-07-19T03:46:23;101667.00;;;19.10;58.79
68871;BME280;55906;52.278;6.808;2022-07-19T03:48:51;101659.88;;;19.09;58.98
68871;BME280;55906;52.278;6.808;2022-07-19T03:51:18;101666.09;;;19.08;58.93
68871;BME280;55906;52.278;6.808;2022-07-19T03:53:44;101669.66;;;19.09;58.95
68871;BME280;55906;52.278;6.808;2022-07-19T03:56:12;101662.53;;;19.09;59.08
68871;BME280;55906;52.278;6.808;2022-07-19T03:58:40;101669.66;;;19.12;59.30
68871;BME280;55906;52.278;6.808;2022-07-19T04:01:06;101668.78;;;19.14;58.91
68871;BME280;55906;52.278;6.808;2022-07-19T04:03:35;101667.00;;;19.13;59.47
68871;BME280;55906;52.278;6.808;2022-07-19T04:06:02;101668.78;;;19.11;59.30
68871;BME280;55906;52.278;6.808;2022-07-19T04:08:29;101667.88;;;19.11;59.29
68871;BME280;55906;52.278;6.808;2022-07-19T04:10:55;101664.31;;;19.12;59.14
68871;BME280;55906;52.278;6.808;2022-07-19T04:13:23;101658.09;;;19.11;59.41
68871;BME280;55906;52.278;6.808;2022-07-19T04:15:51;101665.22;;;19.15;59.26
68871;BME280;55906;52.278;6.808;2022-07-19T04:18:18;101666.13;;;19.17;59.19
68871;BME280;55906;52.278;6.808;2022-07-19T04:20:44;101663.47;;;19.17;59.32
68871;BME280;55906;52.278;6.808;2022-07-19T04:23:11;101668.81;;;19.22;59.28
68871;BME280;55906;52.278;6.808;2022-07-19T04:25:37;101658.13;;;19.24;59.17
68871;BME280;55906;52.278;6.808;2022-07-19T04:28:04;101660.81;;;19.28;59.07
68871;BME280;55906;52.278;6.808;2022-07-19T04:30:31;101659.94;;;19.32;59.03
68871;BME280;55906;52.278;6.808;2022-07-19T04:32:59;101667.97;;;19.35;59.39
68871;BME280;55906;52.278;6.808;2022-07-19T04:35:26;101664.41;;;19.38;58.98
68871;BME280;55906;52.278;6.808;2022-07-19T04:37:53;101664.41;;;19.42;58.86
68871;BME280;55906;52.278;6.808;2022-07-19T04:40:19;101659.97;;;19.46;58.86
68871;BME280;55906;52.278;6.808;2022-07-19T04:42:46;101668.03;;;19.50;58.78
68871;BME280;55906;52.278;6.808;2022-07-19T04:45:12;101673.41;;;19.54;58.63
68871;BME280;55906;52.278;6.808;2022-07-19T04:47:39;101669.84;;;19.61;58.63
68871;BME280;55906;52.278;6.808;2022-07-19T04:50:08;101669.88;;;19.64;59.02
68871;BME280;55906;52.278;6.808;2022-07-19T04:52:38;101668.97;;;19.69;58.62
68871;BME280;55906;52.278;6.808;2022-07-19T04:55:05;101674.31;;;19.75;58.32
68871;BME280;55906;52.278;6.808;2022-07-19T04:57:32;101669.00;;;19.81;58.37
68871;BME280;55906;52.278;6.808;2022-07-19T04:59:58;101665.44;;;19.89;58.40
68871;BME280;55906;52.278;6.808;2022-07-19T05:02:25;101666.31;;;20.01;57.64
68871;BME280;55906;52.278;6.808;2022-07-19T05:04:52;101666.31;;;20.10;57.43
68871;BME280;55906;52.278;6.808;2022-07-19T05:07:20;101670.75;;;20.25;57.46
68871;BME280;55906;52.278;6.808;2022-07-19T05:09:47;101662.72;;;20.36;56.92
68871;BME280;55906;52.278;6.808;2022-07-19T05:12:13;101656.50;;;20.48;56.52
68871;BME280;55906;52.278;6.808;2022-07-19T05:14:40;101659.16;;;20.60;56.54
68871;BME280;55906;52.278;6.808;2022-07-19T05:17:07;101653.75;;;20.70;55.92
68871;BME280;55906;52.278;6.808;2022-07-19T05:19:34;101656.44;;;20.81;55.89
68871;BME280;55906;52.278;6.808;2022-07-19T05:22:00;101654.59;;;20.92;55.05
68871;BME280;55906;52.278;6.808;2022-07-19T05:24:28;101651.00;;;21.02;54.64
68871;BME280;55906;52.278;6.808;2022-07-19T05:26:55;101652.72;;;21.13;54.75
68871;BME280;55906;52.278;6.808;2022-07-19T05:29:21;101653.59;;;21.22;54.23
68871;BME280;55906;52.278;6.808;2022-07-19T05:31:48;101646.41;;;21.33;53.75
68871;BME280;55906;52.278;6.808;2022-07-19T05:34:15;101647.25;;;21.43;52.98
68871;BME280;55906;52.278;6.808;2022-07-19T05:36:41;101648.06;;;21.51;53.07
68871;BME280;55906;52.278;6.808;2022-07-19T05:39:08;101642.66;;;21.62;52.35
68871;BME280;55906;52.278;6.808;2022-07-19T05:41:36;101643.44;;;21.73;51.95
68871;BME280;55906;52.278;6.808;2022-07-19T05:44:10;101639.78;;;21.85;51.63
68871;BME280;55906;52.278;6.808;2022-07-19T05:46:36;101643.25;;;21.96;51.58
68871;BME280;55906;52.278;6.808;2022-07-19T05:49:06;101644.09;;;22.06;51.35
68871;BME280;55906;52.278;6.808;2022-07-19T05:51:33;101635.09;;;22.16;51.09
68871;BME280;55906;52.278;6.808;2022-07-19T05:54:00;101627.00;;;22.23;50.53
68871;BME280;55906;52.278;6.808;2022-07-19T05:56:33;101640.28;;;22.35;49.44
68871;BME280;55906;52.278;6.808;2022-07-19T05:59:01;101633.91;;;22.46;50.24
68871;BME280;55906;52.278;6.808;2022-07-19T06:01:28;101634.66;;;22.58;49.94
68871;BME280;55906;52.278;6.808;2022-07-19T06:03:56;101631.81;;;22.72;49.49
68871;BME280;55906;52.278;6.808;2022-07-19T06:06:25;101636.16;;;22.85;49.26
68871;BME280;55906;52.278;6.808;2022-07-19T06:08:53;101638.69;;;22.97;48.37
68871;BME280;55906;52.278;6.808;2022-07-19T06:11:19;101632.28;;;23.08;48.47
68871;BME280;55906;52.278;6.808;2022-07-19T06:13:47;101636.56;;;23.21;48.22
68871;BME280;55906;52.278;6.808;2022-07-19T06:16:15;101634.63;;;23.32;47.67
68871;BME280;55906;52.278;6.808;2022-07-19T06:18:42;101636.25;;;23.45;47.42
68871;BME280;55906;52.278;6.808;2022-07-19T06:21:13;101631.63;;;23.58;47.24
68871;BME280;55906;52.278;6.808;2022-07-19T06:23:41;101625.16;;;23.70;46.98
68871;BME280;55906;52.278;6.808;2022-07-19T06:26:10;101615.16;;;23.78;46.51
68871;BME280;55906;52.278;6.808;2022-07-19T06:28:37;101627.50;;;23.91;46.43
68871;BME280;55906;52.278;6.808;2022-07-19T06:31:05;101619.22;;;24.03;46.32
68871;BME280;55906;52.278;6.808;2022-07-19T06:33:34;101631.53;;;24.16;46.02
68871;BME280;55906;52.278;6.808;2022-07-19T06:36:00;101625.97;;;24.27;45.83
68871;BME280;55906;52.278;6.808;2022-07-19T06:38:27;101632.00;;;24.40;45.55
68871;BME280;55906;52.278;6.808;2022-07-19T06:40:54;101631.75;;;24.53;45.50
68871;BME280;55906;52.278;6.808;2022-07-19T06:45:56;101634.81;;;24.80;44.52
68871;BME280;55906;52.278;6.808;2022-07-19T06:48:26;101633.63;;;24.95;44.65
68871;BME280;55906;52.278;6.808;2022-07-19T19:18:15;101074.59;;;33.44;23.68
68871;BME280;55906;52.278;6.808;2022-07-19T19:20:44;101080.00;;;33.31;26.63
68871;BME280;55906;52.278;6.808;2022-07-19T19:23:46;101089.16;;;33.16;29.57
68871;BME280;55906;52.278;6.808;2022-07-19T19:26:36;101086.81;;;33.10;25.47
68871;BME280;55906;52.278;6.808;2022-07-19T19:29:03;101091.59;;;33.06;26.11
68871;BME280;55906;52.278;6.808;2022-07-19T19:31:29;101082.84;;;33.01;26.54
68871;BME280;55906;52.278;6.808;2022-07-19T19:33:57;101085.09;;;32.95;27.39
68871;BME280;55906;52.278;6.808;2022-07-19T19:36:24;101088.97;;;32.91;27.64
68871;BME280;55906;52.278;6.808;2022-07-19T19:38:51;101082.06;;;32.85;27.65
68871;BME280;55906;52.278;6.808;2022-07-19T19:41:17;101093.38;;;32.79;27.86
68871;BME280;55906;52.278;6.808;2022-07-19T19:43:44;101096.44;;;32.73;28.25
68871;BME280;55906;52.278;6.808;2022-07-19T19:46:11;101095.00;;;32.67;28.30
68871;BME280;55906;52.278;6.808;2022-07-19T19:48:38;101090.03;;;32.60;29.10
68871;BME280;55906;52.278;6.808;2022-07-19T19:51:09;101094.34;;;32.48;28.75
68871;BME280;55906;52.278;6.808;2022-07-19T19:53:36;101085.97;;;32.37;28.16
68871;BME280;55906;52.278;6.808;2022-07-19T19:56:05;101082.16;;;32.25;27.53
68871;BME280;55906;52.278;6.808;2022-07-19T19:58:32;101094.72;;;32.12;27.67
68871;BME280;55906;52.278;6.808;2022-07-19T20:00:59;101094.50;;;32.01;27.15
68871;BME280;55906;52.278;6.808;2022-07-19T20:03:26;101096.19;;;31.88;27.31
68871;BME280;55906;52.278;6.808;2022-07-19T20:05:52;101094.97;;;31.77;27.28
68871;BME280;55906;52.278;6.808;2022-07-19T20:08:20;101093.59;;;31.70;27.01
68871;BME280;55906;52.278;6.808;2022-07-19T20:10:47;101095.06;;;31.60;26.96
68871;BME280;55906;52.278;6.808;2022-07-19T20:13:18;101093.75;;;31.51;26.95
68871;BME280;55906;52.278;6.808;2022-07-19T20:15:45;101097.00;;;31.42;26.80
68871;BME280;55906;52.278;6.808;2022-07-19T20:18:12;101096.56;;;31.34;26.54
68871;BME280;55906;52.278;6.808;2022-07-19T20:20:38;101101.47;;;31.28;26.36
68871;BME280;55906;52.278;6.808;2022-07-19T20:23:05;101098.28;;;31.19;26.57
68871;BME280;55906;52.278;6.808;2022-07-19T20:25:33;101099.81;;;31.08;26.98
68871;BME280;55906;52.278;6.808;2022-07-19T20:28:00;101100.41;;;30.97;26.99
68871;BME280;55906;52.278;6.808;2022-07-19T20:30:27;101103.47;;;30.91;26.89
68871;BME280;55906;52.278;6.808;2022-07-19T20:32:56;101099.50;;;30.81;26.68
68871;BME280;55906;52.278;6.808;2022-07-19T20:35:23;101101.03;;;30.69;26.92
68871;BME280;55906;52.278;6.808;2022-07-19T20:37:50;101101.63;;;30.59;27.36
68871;BME280;55906;52.278;6.808;2022-07-19T20:40:17;101104.63;;;30.52;27.39
68871;BME280;55906;52.278;6.808;2022-07-19T20:42:45;101112.06;;;30.49;27.08
68871;BME280;55906;52.278;6.808;2022-07-19T20:45:12;101103.44;;;30.41;26.99
68871;BME280;55906;52.278;6.808;2022-07-19T20:47:41;101113.84;;;30.33;27.01
68871;BME280;55906;52.278;6.808;2022-07-19T20:50:08;101110.50;;;30.28;26.66
68871;BME280;55906;52.278;6.808;2022-07-19T20:52:35;101118.72;;;30.26;27.24
68871;BME280;55906;52.278;6.808;2022-07-19T20:55:01;101118.00;;;30.22;26.68
68871;BME280;55906;52.278;6.808;2022-07-19T20:57:28;101110.00;;;30.19;26.84
68871;BME280;55906;52.278;6.808;2022-07-19T20:59:56;101107.63;;;30.13;27.06
68871;BME280;55906;52.278;6.808;2022-07-19T21:02:23;101114.25;;;30.08;27.27
68871;BME280;55906;52.278;6.808;2022-07-19T21:04:50;101111.69;;;30.05;26.78
68871;BME280;55906;52.278;6.808;2022-07-19T21:07:16;101115.28;;;30.05;26.65
68871;BME280;55906;52.278;6.808;2022-07-19T21:09:43;101122.69;;;30.02;26.45
68871;BME280;55906;52.278;6.808;2022-07-19T21:12:09;101124.66;;;29.98;26.55
68871;BME280;55906;52.278;6.808;2022-07-19T21:14:36;101120.34;;;29.94;26.22
68871;BME280;55906;52.278;6.808;2022-07-19T21:17:04;101123.31;;;29.88;26.62
68871;BME280;55906;52.278;6.808;2022-07-19T21:19:31;101122.75;;;29.81;27.00
68871;BME280;55906;52.278;6.808;2022-07-19T21:21:57;101122.91;;;29.78;26.69
68871;BME280;55906;52.278;6.808;2022-07-19T21:24:24;101123.22;;;29.72;26.49
68871;BME280;55906;52.278;6.808;2022-07-19T21:26:50;101114.50;;;29.66;27.02
68871;BME280;55906;52.278;6.808;2022-07-19T21:29:17;101122.00;;;29.60;26.84
68871;BME280;55906;52.278;6.808;2022-07-19T21:31:44;101108.00;;;29.51;27.02
68871;BME280;55906;52.278;6.808;2022-07-19T21:34:14;101113.72;;;29.45;27.52
68871;BME280;55906;52.278;6.808;2022-07-19T21:36:41;101125.88;;;29.36;27.25
68871;BME280;55906;52.278;6.808;2022-07-19T21:39:09;101114.59;;;29.26;27.35
68871;BME280;55906;52.278;6.808;2022-07-19T21:41:36;101121.31;;;29.18;27.75
68871;BME280;55906;52.278;6.808;2022-07-19T21:44:03;101112.69;;;29.10;27.97
68871;BME280;55906;52.278;6.808;2022-07-19T21:46:30;101110.31;;;29.02;27.61
68871;BME280;55906;52.278;6.808;2022-07-19T21:48:57;101114.19;;;28.96;27.91
68871;BME280;55906;52.278;6.808;2022-07-19T21:51:25;101122.63;;;28.90;28.23
68871;BME280;55906;52.278;6.808;2022-07-19T21:53:52;101112.94;;;28.85;28.07
68871;BME280;55906;52.278;6.808;2022-07-19T21:56:19;101114.06;;;28.79;28.32
68871;BME280;55906;52.278;6.808;2022-07-19T21:58:45;101124.16;;;28.76;28.12
68871;BME280;55906;52.278;6.808;2022-07-19T22:01:12;101121.72;;;28.70;28.17
68871;BME280;55906;52.278;6.808;2022-07-19T22:03:39;101120.19;;;28.64;28.48
68871;BME280;55906;52.278;6.808;2022-07-19T22:06:06;101127.59;;;28.59;28.50
68871;BME280;55906;52.278;6.808;2022-07-19T22:08:36;101129.63;;;28.54;28.57
68871;BME280;55906;52.278;6.808;2022-07-19T22:11:03;101124.50;;;28.48;28.46
68871;BME280;55906;52.278;6.808;2022-07-19T22:13:30;101126.53;;;28.43;28.51
68871;BME280;55906;52.278;6.808;2022-07-19T22:15:57;101120.50;;;28.36;28.93
68871;BME280;55906;52.278;6.808;2022-07-19T22:18:23;101121.50;;;28.33;28.71
68871;BME280;55906;52.278;6.808;2022-07-19T22:20:51;101123.69;;;28.25;28.53
68871;BME280;55906;52.278;6.808;2022-07-19T22:23:19;101122.16;;;28.18;28.89
68871;BME280;55906;52.278;6.808;2022-07-19T22:25:49;101120.59;;;28.13;29.34
68871;BME280;55906;52.278;6.808;2022-07-19T22:28:16;101130.66;;;28.09;28.77
68871;BME280;55906;52.278;6.808;2022-07-19T22:30:43;101120.97;;;28.03;28.95
68871;BME280;55906;52.278;6.808;2022-07-19T22:33:10;101120.38;;;27.97;29.00
68871;BME280;55906;52.278;6.808;2022-07-19T22:35:36;101126.09;;;27.89;29.28
68871;BME280;55906;52.278;6.808;2022-07-19T22:38:03;101126.34;;;27.83;29.75
68871;BME280;55906;52.278;6.808;2022-07-19T22:40:29;101128.50;;;27.75;29.68
68871;BME280;55906;52.278;6.808;2022-07-19T22:42:58;101124.28;;;27.68;29.90
68871;BME280;55906;52.278;6.808;2022-07-19T22:45:24;101128.19;;;27.59;29.72
68871;BME280;55906;52.278;6.808;2022-07-19T22:47:52;101132.09;;;27.52;30.04
68871;BME280;55906;52.278;6.808;2022-07-19T22:50:19;101128.81;;;27.44;30.50
68871;BME280;55906;52.278;6.808;2022-07-19T22:52:46;101131.00;;;27.34;30.67
68871;BME280;55906;52.278;6.808;2022-07-19T22:55:12;101129.47;;;27.27;30.45
68871;BME280;55906;52.278;6.808;2022-07-19T22:57:39;101124.41;;;27.18;30.69
68871;BME280;55906;52.278;6.808;2022-07-19T23:00:09;101122.00;;;27.10;31.43
68871;BME280;55906;52.278;6.808;2022-07-19T23:02:37;101124.25;;;26.99;31.41
68871;BME280;55906;52.278;6.808;2022-07-19T23:05:05;101128.91;;;26.94;31.58
68871;BME280;55906;52.278;6.808;2022-07-19T23:07:33;101129.19;;;26.87;31.56
68871;BME280;55906;52.278;6.808;2022-07-19T23:10:00;101123.09;;;26.82;31.60
68871;BME280;55906;52.278;6.808;2022-07-19T23:12:26;101114.31;;;26.75;31.78
68871;BME280;55906;52.278;6.808;2022-07-19T23:14:53;101118.13;;;26.69;31.54
68871;BME280;55906;52.278;6.808;2022-07-19T23:17:21;101118.25;;;26.66;32.20
68871;BME280;55906;52.278;6.808;2022-07-19T23:19:47;101118.47;;;26.60;31.97
68871;BME280;55906;52.278;6.808;2022-07-19T23:22:14;101114.28;;;26.52;32.40
68871;BME280;55906;52.278;6.808;2022-07-19T23:24:41;101113.53;;;26.48;32.10
68871;BME280;55906;52.278;6.808;2022-07-19T23:27:07;101112.81;;;26.43;32.47
68871;BME280;55906;52.278;6.808;2022-07-19T23:29:34;101110.22;;;26.40;32.51
68871;BME280;55906;52.278;6.808;2022-07-19T23:32:00;101110.44;;;26.34;32.09
68871;BME280;55906;52.278;6.808;2022-07-19T23:34:29;101107.81;;;26.31;32.44
68871;BME280;55906;52.278;6.808;2022-07-19T23:36:55;101108.97;;;26.24;32.93
68871;BME280;55906;52.278;6.808;2022-07-19T23:39:22;101106.38;;;26.21;32.25
68871;BME280;55906;52.278;6.808;2022-07-19T23:41:48;101104.66;;;26.18;32.39
68871;BME280;55906;52.278;6.808;2022-07-19T23:44:17;101104.72;;;26.17;32.49
68871;BME280;55906;52.278;6.808;2022-07-19T23:46:44;101104.00;;;26.11;32.83
68871;BME280;55906;52.278;6.808;2022-07-19T23:49:10;101100.47;;;26.09;32.71
68871;BME280;55906;52.278;6.808;2022-07-19T23:51:38;101105.16;;;26.04;32.76
68871;BME280;55906;52.278;6.808;2022-07-19T23:54:05;101102.56;;;26.01;32.97
68871;BME280;55906;52.278;6.808;2022-07-19T23:56:32;101103.50;;;25.99;33.19
68871;BME280;55906;52.278;6.808;2022-07-19T23:58:58;101102.72;;;25.95;33.12
